Tiempo atmosférico en la estación meteorológica de Tenerife Norte Aeropuerto, Santa Cruz de Tenerife (632 m.)



Fecha
DESCASC
Temp. máxima en grados centígrados (hora)
DESCASC
Temp. mínima en grados centígrados (hora)
DESCASC
Temp. media en grados centígrados
DESCASC
Racha de viento máxima en m/sg (hora)
DESCASC
Velocidad máxima media en intervalos de 10 minutos(hora)
DESCASC
Precipitaciones diarias en mm
DESCASC
Precipitaciones de 00:00 a 06:00 en mm
DESCASC
Precipitaciones de 06:00 a 12:00 en mm
DESCASC
Precipitaciones de 12:00 a 18:00 en mm
DESCASC
Precipitaciones de 18:00 a 24:00 en mm
DESCASC
16-04-2019 19.2 (14:10) 11.3 (07:30) 15.3 12.5 (22:20) 8.33 (21:10) 0.5 0 0 0 0.5
15-04-2019 20.1 (13:00) 11.5 (06:20) 15.8 12.5 (01:30) 9.72 (01:00) 0 0 0 0 0
14-04-2019 22.1 (11:50) 10.3 (00:00) 16.2 12.5 (20:40) 8.89 (20:40) 0 0 0 0 0
13-04-2019 19.9 (14:10) 11.3 (00:00) 15.6 11.67 (00:40) 7.5 (00:50) 0 0 0 0 0
12-04-2019 17.5 (16:00) 11.6 (00:00) 14.6 13.33 (00:30) 10 (00:30) 0 0 0 0 0
11-04-2019 16.6 (15:10) 11.5 (00:00) 14.1 15 (20:50) 10.83 (21:10) 0 0 0 0 0
10-04-2019 17.4 (13:30) 11 (00:00) 14.2 15.28 (15:10) 9.72 (16:30) 0 0 0 0 0
09-04-2019 17.8 (13:50) 9.8 (00:00) 13.8 10.83 (22:40) 7.78 (21:20) 0.2 0 0 0.2 0
08-04-2019 17 (16:00) 10.7 (00:00) 13.8 10.28 (20:30) 7.22 (20:10) 0.3 0.1 0.2 0 0
07-04-2019 18 (15:50) 8.7 (00:00) 13.3 8.89 (00:10) 6.39 (00:10) 0 0 0 0 0
06-04-2019 16.1 (16:40) 10.2 (00:00) 13.2 15.28 (02:10) 11.11 (03:00) 0 0 0 0 0
05-04-2019 17 (15:00) 10.1 (00:00) 13.6 16.39 (17:40) 11.39 (15:20) 1.3 0.2 0.2 0.9 0
04-04-2019 15.9 (16:00) 9.3 (00:00) 12.6 14.44 (18:10) 10.28 (10:40) 1.8 0.5 1 0.3 0
03-04-2019 16.7 (14:20) 9.1 (08:00) 12.9 17.5 (18:40) 13.33 (18:40) 10.7 0 5.6 0 5.1
02-04-2019 16.2 (13:20) 10 (00:00) 13.1 8.33 (18:50) 6.67 (20:30) 4 0.3 0.6 2.9 0.2
01-04-2019 16 (12:30) 10.5 (00:00) 13.3 8.89 (02:30) 6.94 (02:40) 5.3 0 0 2.4 2.9
31-03-2019 17.6 (14:10) 7.8 (00:00) 12.7 9.72 (09:20) 6.94 (09:30) 0 0 0 0 0
30-03-2019 17.1 (15:10) 8.9 (00:00) 13 9.72 (06:40) 6.67 (06:40) 2.2 0.1 2.1 0 0
29-03-2019 15.5 (10:30) 9.9 (00:00) 12.7 7.78 (18:10) 5.56 (18:10) 17 0 3.5 13.2 0.3
28-03-2019 17.3 (12:00) 10.3 (00:00) 13.8 6.67 (11:30) 4.44 (12:00) 0.2 0 0 0.2 0
27-03-2019 17.7 (13:40) 12.5 (00:00) 15.1 11.67 (02:30) 9.17 (02:30) 0.1 0.1 0 0 0
26-03-2019 17.8 (13:40) 7.4 (00:00) 12.6 11.67 (21:10) 9.72 (21:10) 0 0 0 0 0
25-03-2019 15.8 (15:20) 9.9 (00:00) 12.8 8.33 (16:10) 5 (16:10) 2.6 0.1 1.9 0.6 0
24-03-2019 17.4 (14:00) 9.7 (00:00) 13.5 9.72 (01:30) 7.22 (01:30) 1.5 0 0 0 1.5
23-03-2019 16.8 (13:00) 11.5 (00:00) 14.1 15 (00:50) 10.83 (10:50) 0 0 0 0 0
22-03-2019 17.7 (14:40) 11.2 (00:00) 14.5 14.44 (07:20) 9.44 (07:00) 0 0 0 0 0
21-03-2019 18.6 (15:50) 10.1 (00:00) 14.4 9.17 (12:50) 5.83 (12:50) 0 0 0 0 0
20-03-2019 18.8 (16:20) 10.2 (00:00) 14.5 8.89 (01:40) 6.67 (18:40) 0 0 0 0 0
19-03-2019 17 (12:30) 11 (00:00) 14 11.39 (18:40) 7.78 (18:00) 0 0 0 0 0

Gráficas

Temp. máximas Temp. mínimas Temp. medias Precipitaciones Rachas de viento máximas Velocidades máximas media en intervalos de 10 minutos

Datos horarios

Fecha y hora oficial Temperatura (ºC) Velocidad del viento (km/h) Dirección del viento Racha (km/h) Dirección de racha Precipitación (mm) Presión (hPa) Tendencia (hPa) Humedad (%)
2019-04-17 23:00:00 13.1 29 Noroeste 46 Oeste 0 947.6 2.2 91
2019-04-17 22:00:00 13.2 27 Noroeste 37 Oeste 0 946.8 1.6 89
2019-04-17 21:00:00 13.3 24 Noroeste 37 Noroeste 0 946 1 88
2019-04-17 20:00:00 13.7 26 Oeste 37 Oeste 0 945.4 0.5 89
2019-04-17 19:00:00 13.9 27 Oeste 39 Oeste 0 945.2 0.1 90
2019-04-17 18:00:00 14.2 26 Oeste 35 Oeste 0 945 -0.1 85
2019-04-17 17:00:00 14.3 21 Oeste 37 Oeste 0.2 944.9 -0.4 93
2019-04-17 16:00:00 13.8 23 Oeste 32 Oeste 0.6 945.1 -0.5 95
2019-04-17 15:00:00 14.6 21 Oeste 32 Oeste 0.3 945.1 -0.4 97
2019-04-17 14:00:00 14.1 17 Noroeste 28 Noroeste 1 945.3 0.2 98
2019-04-17 13:00:00 13.8 15 Noroeste 28 Noroeste 0.7 945.6 1.2 97
2019-04-17 12:00:00 14.9 14 Noroeste 30 Oeste 0.5 945.5 1.4 92
2019-04-17 11:00:00 15.9 18 Oeste 32 Oeste 0 945.1 1.4 86
2019-04-17 10:00:00 16.6 16 Noroeste 28 Oeste 0 944.4 1.1 74
2019-04-17 09:00:00 14.3 11 Oeste 22 Oeste 0 944.1 1.1 79
2019-04-17 08:00:00 10.6 12 Oeste 21 Oeste 0 943.7 0.6 83
2019-04-17 07:00:00 12.4 13 Oeste 22 Oeste 0 943.3 -0.2 74
2019-04-17 06:00:00 11.6 18 Oeste 26 Oeste 0 943 -0.7 85
2019-04-17 05:00:00 11.4 16 Oeste 22 Oeste 0 943.1 -1.1 89
2019-04-17 04:00:00 11.4 14 Oeste 24 Oeste 0 943.5 -1.3 94
2019-04-17 03:00:00 12.6 20 Oeste 32 Oeste 0 943.7 -1.2 97
2019-04-17 02:00:00 12.4 15 Oeste 30 Oeste 0 944.2 -0.5 97
2019-04-17 01:00:00 13.3 22 Oeste 33 Oeste 0 944.8 0.4 98
2019-04-17 00:00:00 13.3 15 Oeste 30 Oeste 0 944.9 1.2 98
2019-04-16 23:00:00 13.3 23 Oeste 45 Oeste 0 944.7 1.2 97
2019-04-16 22:00:00 13.5 28 Noroeste 42 Noroeste 0.1 944.4 0.9 97
2019-04-16 21:00:00 14.5 26 Noroeste 42 Noroeste 0.4 943.7 0.1 96
2019-04-16 20:00:00 15 24 Oeste 41 Oeste 0 943.5 -0.4 93
2019-04-16 19:00:00 15.6 21 Oeste 32 Oeste 0 943.5 -1.2 82
2019-04-16 18:00:00 17.2 18 Oeste 26 Oeste 0 943.6 -1.8 78
2019-04-16 17:00:00 17.5 15 Oeste 28 Oeste 0 943.9 -2.3 78
2019-04-16 16:00:00 17.9 17 Oeste 39 Oeste 0 944.7 -1.8 74
2019-04-16 15:00:00 17.6 10 Sudeste 18 Este 0 945.4 -1.6 81
2019-04-16 14:00:00 18.7 9 Noroeste 24 Noroeste 0 946.2 -0.6 66
2019-04-16 13:00:00 17.1 9 Este 18 Sudeste 0 946.5 -0.2 85
2019-04-16 12:00:00 15.4 12 Sudeste 21 Sudeste 0 947 0.3 91
2019-04-16 11:00:00 16.4 14 Sudeste 21 Sudeste 0 946.8 0.6 84
2019-04-16 10:00:00 17.4 5 Este 15 Noroeste 0 946.7 1 70
2019-04-16 09:00:00 14.3 10 Oeste 24 Oeste 0 946.7 1.2 89
2019-04-16 08:00:00 12.1 10 Oeste 17 Oeste 0 946.2 0.2 93
2019-04-16 07:00:00 13.1 9 Oeste 13 Oeste 0 945.7 -0.8 92
2019-04-16 06:00:00 13.6 8 Oeste 13 Oeste 0 945.5 -1.7 93
2019-04-16 05:00:00 13.2 8 Oeste 13 Oeste 0 946 -1.9 91
2019-04-16 04:00:00 13.1 10 Oeste 13 Oeste 0 946.5 -2 90
2019-04-16 03:00:00 13.1 9 Oeste 11 Oeste 0 947.2 -1.7 92
2019-04-16 02:00:00 13.2 7 Oeste 11 Oeste 0 947.9 -0.8 93
2019-04-16 01:00:00 12.8 2 Sudoeste 9 Sur 0 948.5 -0.3 92
2019-04-16 00:00:00 13.2 6 Sur 9 Sur 0 948.9 0.7 92
2019-04-15 23:00:00 14.1 6 Oeste 9 Oeste 0 948.7 0.8 89
2019-04-15 22:00:00 14.2 8 Oeste 17 Oeste 0 948.8 1.1 92
2019-04-15 21:00:00 14.5 12 Oeste 15 Oeste 0 948.2 0.3 92
2019-04-15 20:00:00 15.9 11 Noroeste 21 Noroeste 0 947.9 0 88
2019-04-15 19:00:00 17.3 12 Oeste 22 Oeste 0 947.7 -0.5 81
2019-04-15 18:00:00 17.5 14 Oeste 30 Oeste 0 947.9 -0.6 80
2019-04-15 17:00:00 17.6 20 Noroeste 30 Noroeste 0 947.9 -1 82
2019-04-15 16:00:00 18.1 10 Este 28 Este 0 948.2 -1.1 76
2019-04-15 15:00:00 18.9 15 Sudeste 24 Sudeste 0 948.5 -0.9 72
2019-04-15 14:00:00 18.8 16 Este 28 Este 0 948.9 -0.4 72
2019-04-15 13:00:00 19.6 6 Norte 22 Noroeste 0 949.3 0.4 62
2019-04-15 12:00:00 17.9 11 Noroeste 24 Oeste 0 949.4 0.9 72
2019-04-15 11:00:00 17.4 14 Noroeste 22 Noroeste 0 949.3 1.2 74
2019-04-15 10:00:00 17.1 13 Noroeste 24 Noroeste 0 948.9 1.1 70
2019-04-15 09:00:00 15.3 11 Noroeste 30 Oeste 0 948.5 1.3 78
2019-04-15 08:00:00 13 24 Oeste 41 Oeste 0 948.1 1.3 86
2019-04-15 07:00:00 12.6 28 Oeste 35 Oeste 0 947.8 0.8 95
2019-04-15 06:00:00 11.6 26 Oeste 33 Oeste 0 947.2 -0.1 94
2019-04-15 05:00:00 12.7 24 Noroeste 37 Oeste 0 946.8 -0.9 90
2019-04-15 04:00:00 12.7 30 Oeste 41 Oeste 0 947 -1 89
2019-04-15 03:00:00 12.7 27 Oeste 42 Oeste 0 947.3 -0.5 87
2019-04-15 02:00:00 12.8 28 Oeste 45 Oeste 0 947.7 0.2 94
2019-04-15 01:00:00 13 35 Oeste 42 Oeste 0 948 1.5 93
2019-04-15 00:00:00 13.1 27 Oeste 37 Oeste 0 947.8 1.6 94
2019-04-14 23:00:00 13 23 Oeste 39 Oeste 0 947.5 1.7 94
2019-04-14 22:00:00 13.3 16 Oeste 42 Oeste 0 946.5 0.9 92
2019-04-14 21:00:00 14.1 31 Oeste 45 Noroeste 0 946.2 0.7 92
2019-04-14 20:00:00 15.6 21 Noroeste 37 Oeste 0 945.8 0.7 85
2019-04-14 19:00:00 16.2 23 Oeste 41 Oeste 0 945.6 -0.1 82
2019-04-14 18:00:00 17.4 29 Oeste 41 Oeste 0 945.5 -0.5 77
2019-04-14 17:00:00 20.3 23 Oeste 33 Oeste 0 945.1 -1.1 58
2019-04-14 16:00:00 18.4 26 Oeste 39 Oeste 0 945.7 -0.8 73
2019-04-14 15:00:00 19.2 26 Noroeste 35 Noroeste 0 946 -0.8 63
2019-04-14 14:00:00 19.9 20 Noroeste 30 Noroeste 0 946.2 -0.6 63
2019-04-14 13:00:00 19.1 18 Noroeste 30 Noroeste 0 946.5 0 69
2019-04-14 12:00:00 20 10 Este 15 Sudeste 0 946.8 0.4 59
2019-04-14 11:00:00 20.5 6 Este 13 Sudeste 0 946.8 1 31
2019-04-14 10:00:00 19.4 0 Calma 9 Este 0 946.5 1.1 39
2019-04-14 09:00:00 14.3 0 Calma 13 Sudeste 0 946.4 0.8 82
2019-04-14 08:00:00 11.2 10 Sudeste 21 Sudeste 0 945.8 -0.3 88
2019-04-14 07:00:00 10.8 10 Sudeste 15 Sur 0 945.4 -1.5 74
2019-04-14 06:00:00 10.5 10 Sur 13 Sur 0 945.6 -1.7 84
2019-04-14 05:00:00 11.1 8 Sudoeste 21 Oeste 0 946.1 -2 92
2019-04-14 04:00:00 11.3 18 Oeste 26 Oeste 0 946.9 -1.6 96
2019-04-14 03:00:00 11.5 17 Oeste 26 Oeste 0 947.3 -1.4 95
2019-04-14 02:00:00 11.6 19 Oeste 26 Oeste 0 948.1 -1 93
2019-04-14 01:00:00 12.2 20 Oeste 30 Oeste 0 948.5 -0.2 93
2019-04-14 00:00:00 11.5 17 Oeste 24 Oeste 0 948.7 0.5 92
2019-04-13 23:00:00 12.1 15 Oeste 21 Oeste 0 949.1 1.1 94
2019-04-13 22:00:00 12.7 13 Oeste 21 Oeste 0 948.7 1 93
2019-04-13 21:00:00 13 16 Oeste 28 Oeste 0 948.2 0.4 92
2019-04-13 20:00:00 14.2 20 Oeste 30 Oeste 0 948 0 88
2019-04-13 19:00:00 16.6 16 Oeste 24 Oeste 0 947.7 -0.6 78
2019-04-13 18:00:00 17.3 18 Oeste 32 Oeste 0 947.8 -1.1 73
2019-04-13 17:00:00 18.8 18 Oeste 30 Oeste 0 948 -1.1 69
2019-04-13 16:00:00 19.2 9 Este 18 Este 0 948.3 -1.5 66
2019-04-13 15:00:00 18.8 9 Este 24 Este 0 948.9 -1.2 61
2019-04-13 14:00:00 19.4 10 Este 22 Este 0 949.1 -0.8 54
2019-04-13 13:00:00 17.2 7 Noroeste 26 Norte 0 949.8 0.2 66
2019-04-13 12:00:00 16.9 14 Norte 32 Norte 0 950.1 0.6 68
2019-04-13 11:00:00 15.2 16 Noroeste 33 Norte 0 949.9 0.7 74
2019-04-13 10:00:00 15 18 Noroeste 32 Norte 0 949.6 0.6 74
2019-04-13 09:00:00 13.8 13 Noroeste 24 Noroeste 0 949.5 0.6 79
2019-04-13 08:00:00 12.7 16 Noroeste 32 Norte 0 949.2 0.1 86
2019-04-13 07:00:00 12.8 15 Noroeste 30 Oeste 0 949 -0.1 86
2019-04-13 06:00:00 12.7 14 Noroeste 39 Noroeste 0 948.9 -0.7 85
2019-04-13 05:00:00 12.8 22 Noroeste 33 Noroeste 0 949.1 -1.4 85
2019-04-13 04:00:00 13 20 Noroeste 37 Noroeste 0 949.1 -1.5 84
2019-04-13 03:00:00 12.9 22 Noroeste 35 Noroeste 0 949.6 -1 81
2019-04-13 02:00:00 12.9 19 Noroeste 39 Oeste 0 950.5 0.1 86
2019-04-13 01:00:00 12.5 22 Noroeste 42 Noroeste 0 950.6 0.7 87
2019-04-13 00:00:00 12.3 26 Noroeste 41 Oeste 0 950.6 1.2 85
2019-04-12 23:00:00 11.9 27 Noroeste 39 Oeste 0 950.4 1.5 88
2019-04-12 22:00:00 12 25 Noroeste 45 Oeste 0 949.9 0.9 86
2019-04-12 21:00:00 12.3 28 Oeste 45 Oeste 0 949.4 0.6 84
2019-04-12 20:00:00 12.7 31 Oeste 45 Oeste 0 948.9 0 81
2019-04-12 19:00:00 13.5 31 Oeste 48 Oeste 0 949 -0.1 78
2019-04-12 18:00:00 14.5 30 Noroeste 42 Oeste 0 948.8 -0.4 74
2019-04-12 17:00:00 15.4 30 Noroeste 41 Noroeste 0 948.9 -1 71
2019-04-12 16:00:00 16.8 23 Noroeste 35 Noroeste 0 949.1 -1.2 65
2019-04-12 15:00:00 16.6 19 Noroeste 41 Noroeste 0 949.2 -1 64
2019-04-12 14:00:00 15.9 28 Noroeste 42 Noroeste 0 949.9 -0.2 65
2019-04-12 13:00:00 15.3 26 Noroeste 39 Noroeste 0 950.3 0.3 73
2019-04-12 12:00:00 15.8 20 Noroeste 37 Noroeste 0 950.2 0.5 67
2019-04-12 11:00:00 14 22 Noroeste 42 Noroeste 0 950.1 0.8 76
2019-04-12 10:00:00 14 24 Noroeste 39 Noroeste 0 950 1 74
2019-04-12 09:00:00 12.7 23 Noroeste 33 Noroeste 0 949.7 0.9 78
2019-04-12 08:00:00 11.8 24 Noroeste 39 Noroeste 0 949.3 0.2 82
2019-04-12 07:00:00 11.8 27 Noroeste 45 Noroeste 0 949 -0.1 93
2019-04-12 06:00:00 12 30 Noroeste 46 Noroeste 0 948.8 -0.8 87
2019-04-12 05:00:00 12.2 33 Noroeste 46 Noroeste 0 949.1 -1.2 75
2019-04-12 04:00:00 12 29 Noroeste 42 Noroeste 0 949.1 -2 86
2019-04-12 03:00:00 11.9 31 Noroeste 41 Noroeste 0 949.6 -1.7 86
2019-04-12 02:00:00 12.1 29 Noroeste 48 Noroeste 0 950.3 -0.5 87
2019-04-12 01:00:00 12.2 32 Noroeste 48 Noroeste 0 951.1 0.6 81
2019-04-12 00:00:00 12.1 31 Noroeste 52 Noroeste 0 951.3 1.4 82
2019-04-11 23:00:00 12.3 33 Noroeste 54 Noroeste 0 950.8 1.5 86
2019-04-11 22:00:00 12.6 33 Noroeste 52 Noroeste 0 950.5 1.6 84
2019-04-11 21:00:00 12.6 37 Noroeste 54 Oeste 0 949.9 0.8 82
2019-04-11 20:00:00 13 31 Noroeste 48 Noroeste 0 949.3 0.2 79
2019-04-11 19:00:00 13.3 37 Noroeste 52 Oeste 0 948.9 -0.5 78
2019-04-11 18:00:00 14.1 34 Noroeste 48 Noroeste 0 949.1 -0.8 76
2019-04-11 17:00:00 15.1 32 Noroeste 45 Oeste 0 949.1 -1 68
2019-04-11 16:00:00 15.3 32 Noroeste 50 Noroeste 0 949.4 -1.5 69
2019-04-11 15:00:00 16 28 Noroeste 42 Noroeste 0 949.9 -1.3 62
2019-04-11 14:00:00 15.9 24 Noroeste 39 Noroeste 0 950.1 -0.9 69
2019-04-11 13:00:00 14.1 30 Noroeste 45 Noroeste 0 950.9 0.1 77
2019-04-11 12:00:00 14.8 27 Noroeste 46 Noroeste 0 951.2 0.6 69
2019-04-11 11:00:00 14.1 27 Noroeste 42 Norte 0 951 0.8 68
2019-04-11 10:00:00 13.6 31 Noroeste 46 Noroeste 0 950.8 1.2 71
2019-04-11 09:00:00 13.1 26 Noroeste 42 Noroeste 0 950.6 1.3 73
2019-04-11 08:00:00 11.9 29 Noroeste 46 Oeste 0 950.2 0.9 76
2019-04-11 07:00:00 11.8 30 Noroeste 45 Noroeste 0 949.6 0.1 84
2019-04-11 06:00:00 12 28 Noroeste 42 Oeste 0 949.3 -0.8 81
2019-04-11 05:00:00 11.9 27 Oeste 41 Oeste 0 949.3 -1.2 83
2019-04-11 04:00:00 11.7 23 Oeste 42 Oeste 0 949.5 -1.5 77
2019-04-11 03:00:00 11.8 23 Noroeste 35 Noroeste 0 950.1 -0.9 80
2019-04-11 02:00:00 12.4 20 Noroeste 41 Noroeste 0 950.5 -0.4 80
2019-04-11 01:00:00 12.3 21 Oeste 41 Noroeste 0 951 0.3 79
2019-04-11 00:00:00 12.2 24 Noroeste 33 Noroeste 0 951 0.7 79
2019-04-10 23:00:00 12.4 21 Noroeste 42 Oeste 0 950.9 1.1 82
2019-04-10 22:00:00 12 21 Noroeste 39 Noroeste 0 950.7 1.2 82
2019-04-10 21:00:00 12.5 23 Noroeste 45 Noroeste 0 950.3 1.2 82
2019-04-10 20:00:00 13 27 Noroeste 45 Noroeste 0 949.8 0.7 74
2019-04-10 19:00:00 13.5 28 Noroeste 42 Noroeste 0 949.5 0.1 76
2019-04-10 18:00:00 14.4 27 Noroeste 48 Noroeste 0 949.1 -0.3 77
2019-04-10 17:00:00 15.2 33 Noroeste 48 Noroeste 0 949.1 -0.8 70
2019-04-10 16:00:00 15.2 29 Noroeste 55 Noroeste 0 949.4 -0.9 74
2019-04-10 15:00:00 16.5 27 Noroeste 42 Norte 0 949.4 -0.9 64
2019-04-10 14:00:00 16.6 23 Noroeste 41 Norte 0 949.9 -0.5 59
2019-04-10 13:00:00 16.1 25 Noroeste 41 Oeste 0 950.3 0 60
2019-04-10 12:00:00 16.4 25 Noroeste 39 Norte 0 950.3 0.3 64
2019-04-10 11:00:00 14.7 27 Noroeste 37 Noroeste 0 950.4 1 68
2019-04-10 10:00:00 13 17 Noroeste 28 Noroeste 0 950.3 1.3 80
2019-04-10 09:00:00 12 19 Noroeste 28 Noroeste 0 950 1.2 85
2019-04-10 08:00:00 11.8 15 Noroeste 32 Oeste 0 949.4 0.5 91
2019-04-10 07:00:00 11.4 25 Noroeste 35 Oeste 0 949 -0.1 88
2019-04-10 06:00:00 11.3 20 Noroeste 33 Noroeste 0 948.8 -0.5 84
2019-04-10 05:00:00 11.8 20 Noroeste 30 Noroeste 0 948.9 -0.7 81
2019-04-10 04:00:00 11.7 22 Noroeste 33 Noroeste 0 949.1 -1 77
2019-04-10 03:00:00 12 22 Noroeste 33 Norte 0 949.3 -1.1 81
2019-04-10 02:00:00 12.2 23 Noroeste 33 Noroeste 0 949.6 -0.9 85
2019-04-10 01:00:00 11.9 21 Noroeste 33 Noroeste 0 950.1 0.3 87
2019-04-10 00:00:00 12.1 23 Oeste 33 Oeste 0 950.4 1 88
2019-04-09 23:00:00 11.9 24 Noroeste 39 Noroeste 0 950.5 1.6 90
2019-04-09 22:00:00 12.2 28 Oeste 37 Oeste 0 949.8 1.2 90
2019-04-09 21:00:00 12.3 25 Noroeste 35 Oeste 0 949.4 0.7 86
2019-04-09 20:00:00 13.9 24 Oeste 33 Oeste 0 948.9 0 82
2019-04-09 19:00:00 15.6 21 Noroeste 32 Noroeste 0 948.6 -0.6 75
2019-04-09 18:00:00 16.7 20 Noroeste 37 Norte 0 948.7 -1 71
2019-04-09 17:00:00 16.3 18 Norte 33 Norte 0 948.9 -1.1 73
2019-04-09 16:00:00 17 14 Norte 26 Norte 0 949.2 -1.2 71
2019-04-09 15:00:00 17 17 Norte 32 Nordeste 0 949.7 -0.9 70
2019-04-09 14:00:00 17.2 14 Norte 30 Nordeste 0 950 -0.7 70
2019-04-09 13:00:00 15.7 11 Norte 21 Norte 0.2 950.4 -0.2 90
2019-04-09 12:00:00 14.8 11 Noroeste 18 Noroeste 0 950.6 0.2 91
2019-04-09 11:00:00 15.5 12 Noroeste 18 Norte 0 950.7 0.6 80
2019-04-09 10:00:00 15.4 9 Noroeste 17 Norte 0 950.6 0.9 74
2019-04-09 09:00:00 13.3 6 Oeste 15 Oeste 0 950.4 0.9 91
2019-04-09 08:00:00 12.2 8 Oeste 11 Oeste 0 950.1 0.8 91
2019-04-09 07:00:00 11.8 9 Oeste 15 Oeste 0 949.7 0 90
2019-04-09 06:00:00 11.5 11 Oeste 17 Oeste 0 949.5 -0.4 90
2019-04-09 05:00:00 11.4 15 Oeste 22 Oeste 0 949.3 -0.9 94
2019-04-09 04:00:00 11.1 18 Oeste 26 Oeste 0 949.7 -1 93
2019-04-09 03:00:00 11 17 Oeste 24 Oeste 0 949.9 -1.1 91
2019-04-09 02:00:00 10.6 14 Oeste 21 Oeste 0 950.2 -0.7 90
2019-04-09 01:00:00 11.3 15 Oeste 24 Oeste 0 950.7 -0.2 88
2019-04-09 00:00:00 11.3 15 Oeste 26 Noroeste 0 951 0.9 87
2019-04-08 23:00:00 11.7 20 Oeste 30 Oeste 0 950.9 1.1 83
2019-04-08 22:00:00 12.2 20 Oeste 33 Oeste 0 950.9 1.2 81
2019-04-08 21:00:00 12.8 24 Noroeste 37 Oeste 0 950.1 0.7 79
2019-04-08 20:00:00 13.4 23 Noroeste 33 Oeste 0 949.8 0.2 77
2019-04-08 19:00:00 14.1 23 Noroeste 33 Noroeste 0 949.7 -0.1 75
2019-04-08 18:00:00 15 22 Noroeste 32 Oeste 0 949.4 -0.9 73
2019-04-08 17:00:00 15.2 17 Noroeste 32 Oeste 0 949.6 -1.3 73
2019-04-08 16:00:00 16.4 22 Noroeste 30 Noroeste 0 949.8 -1.3 70
2019-04-08 15:00:00 15.4 18 Noroeste 28 Noroeste 0 950.3 -1.3 75
2019-04-08 14:00:00 16 19 Noroeste 28 Noroeste 0 950.9 -0.5 72
2019-04-08 13:00:00 15.7 17 Noroeste 28 Noroeste 0 951.1 0 74
2019-04-08 12:00:00 13.8 14 Noroeste 32 Noroeste 0 951.6 0.9 87
2019-04-08 11:00:00 12.9 20 Noroeste 30 Norte 0 951.4 1.2 93
2019-04-08 10:00:00 12.7 18 Noroeste 26 Oeste 0 951.1 1.2 95
2019-04-08 09:00:00 11.8 17 Noroeste 24 Noroeste 0.2 950.7 0.9 96
2019-04-08 08:00:00 10.9 13 Oeste 21 Oeste 0 950.2 0.3 92
2019-04-08 07:00:00 11.6 14 Oeste 22 Oeste 0 949.9 -0.1 96
2019-04-08 06:00:00 11.4 14 Oeste 24 Oeste 0 949.8 -0.6 97
2019-04-08 05:00:00 11.8 14 Oeste 28 Oeste 0.1 949.9 -1.1 97
2019-04-08 04:00:00 12.4 20 Oeste 30 Oeste 0 950 -1.1 96
2019-04-08 03:00:00 12.2 21 Noroeste 28 Noroeste 0 950.4 -1.1 94
2019-04-08 02:00:00 12 15 Oeste 26 Noroeste 0 951 -0.5 93
2019-04-08 01:00:00 12.8 19 Noroeste 26 Noroeste 0 951.1 -0.1 93
2019-04-08 00:00:00 12.7 14 Oeste 21 Oeste 0 951.5 0.8 92
2019-04-07 23:00:00 12.5 13 Oeste 18 Noroeste 0 951.5 0.9 90
2019-04-07 22:00:00 12.5 8 Oeste 18 Noroeste 0 951.2 1 90
2019-04-07 21:00:00 12.7 12 Noroeste 22 Noroeste 0 950.7 0.6 87
2019-04-07 20:00:00 13.3 14 Noroeste 24 Noroeste 0 950.6 0.4 80
2019-04-07 19:00:00 15.2 15 Noroeste 26 Noroeste 0 950.2 -0.2 75
2019-04-07 18:00:00 16.6 16 Noroeste 28 Noroeste 0 950.1 -0.9 70
2019-04-07 17:00:00 16.6 18 Noroeste 28 Noroeste 0 950.2 -1.4 72
2019-04-07 16:00:00 17.1 18 Noroeste 30 Noroeste 0 950.4 -1.5 73
2019-04-07 15:00:00 17 17 Oeste 32 Noroeste 0 951 -1.2 70
2019-04-07 14:00:00 16.3 14 Noroeste 30 Noroeste 0 951.6 0 69
2019-04-07 13:00:00 16.4 15 Noroeste 24 Noroeste 0 951.9 0.6 67
2019-04-07 12:00:00 15.2 15 Noroeste 26 Norte 0 952.2 1.5 71
2019-04-07 11:00:00 14.8 15 Noroeste 22 Noroeste 0 951.6 1.3 72
2019-04-07 10:00:00 13.6 13 Oeste 21 Oeste 0 951.3 1.5 80
2019-04-07 09:00:00 12.3 14 Oeste 18 Oeste 0 950.7 1.1 89
2019-04-07 08:00:00 10.6 14 Oeste 18 Oeste 0 950.3 0.6 92
2019-04-07 07:00:00 10.2 14 Oeste 21 Oeste 0 949.8 0 94
2019-04-07 06:00:00 10.2 14 Oeste 17 Oeste 0 949.6 -0.6 94
2019-04-07 05:00:00 10.2 13 Oeste 15 Oeste 0 949.7 -1.1 94
2019-04-07 04:00:00 10.6 12 Oeste 21 Oeste 0 949.8 -1.5 93
2019-04-07 03:00:00 10.4 14 Oeste 22 Oeste 0 950.2 -1.3 93
2019-04-07 02:00:00 10.3 14 Oeste 22 Noroeste 0 950.8 -0.3 92
2019-04-07 01:00:00 11.2 17 Oeste 32 Noroeste 0 951.3 0.4 89
2019-04-07 00:00:00 11.7 19 Oeste 35 Oeste 0 951.5 1.2 87
2019-04-06 23:00:00 12 31 Oeste 41 Oeste 0 951.1 1.1 84
2019-04-06 22:00:00 12.2 28 Oeste 39 Oeste 0 950.9 1.3 87
2019-04-06 21:00:00 12.3 30 Oeste 41 Noroeste 0 950.3 1.1 87
2019-04-06 20:00:00 12.5 32 Oeste 46 Oeste 0 950 0.6 80
2019-04-06 19:00:00 14.2 33 Noroeste 48 Oeste 0 949.6 -0.4 73
2019-04-06 18:00:00 14.9 34 Noroeste 52 Oeste 0 949.2 -1.2 69
2019-04-06 17:00:00 15.4 32 Noroeste 46 Noroeste 0 949.4 -1.2 68
2019-04-06 16:00:00 15.3 28 Noroeste 45 Oeste 0 950 -0.6 70
2019-04-06 15:00:00 14.4 29 Noroeste 48 Oeste 0 950.4 -0.1 70
2019-04-06 14:00:00 15.1 31 Noroeste 50 Noroeste 0 950.6 0.4 69
2019-04-06 13:00:00 14.2 32 Noroeste 52 Noroeste 0 950.6 0.9 76
2019-04-06 12:00:00 13.6 36 Oeste 52 Oeste 0 950.5 1.2 79
2019-04-06 11:00:00 12.6 36 Oeste 50 Oeste 0 950.2 1.4 84
2019-04-06 10:00:00 10.9 33 Noroeste 54 Noroeste 0 949.7 1.3 95
2019-04-06 09:00:00 11.7 34 Noroeste 55 Noroeste 0 949.3 1.6 87
2019-04-06 08:00:00 11.2 31 Oeste 52 Noroeste 0 948.8 1 85
2019-04-06 07:00:00 11.4 31 Noroeste 50 Noroeste 0 948.4 0.5 82
2019-04-06 06:00:00 11.6 33 Noroeste 52 Oeste 0 947.7 -0.6 84
2019-04-06 05:00:00 11.8 34 Noroeste 54 Noroeste 0 947.8 -1.1 81
2019-04-06 04:00:00 11.8 33 Noroeste 55 Norte 0 947.9 -1.7 80
2019-04-06 03:00:00 11.9 40 Noroeste 55 Noroeste 0 948.3 -1.3 87
2019-04-06 02:00:00 11.5 31 Noroeste 54 Oeste 0 948.9 -0.4 87
2019-04-06 01:00:00 11 33 Noroeste 50 Noroeste 0 949.6 1 92
2019-04-06 00:00:00 12 36 Noroeste 54 Noroeste 0 949.6 1.7 83
2019-04-05 23:00:00 12.2 36 Noroeste 54 Noroeste 0 949.3 1.8 85
2019-04-05 22:00:00 12.3 36 Noroeste 59 Oeste 0 948.6 1.1 82
2019-04-05 21:00:00 12.5 37 Noroeste 59 Oeste 0 947.9 0.7 85
2019-04-05 20:00:00 12.6 35 Noroeste 59 Oeste 0 947.5 0.1 81
2019-04-05 19:00:00 12.6 36 Noroeste 59 Noroeste 0 947.5 -0.2 86
2019-04-05 18:00:00 13 37 Noroeste 59 Oeste 0 947.2 -0.8 86
2019-04-05 17:00:00 13 35 Noroeste 54 Noroeste 0.6 947.4 -1 91
2019-04-05 16:00:00 13.2 36 Noroeste 54 Oeste 0.3 947.7 -0.9 93
2019-04-05 15:00:00 16.3 36 Oeste 50 Oeste 0 948 -0.6 67
2019-04-05 14:00:00 15.8 39 Oeste 50 Oeste 0 948.4 0.6 71
2019-04-05 13:00:00 15.4 36 Oeste 50 Oeste 0 948.6 1.2 65
2019-04-05 12:00:00 15.8 35 Oeste 48 Oeste 0 948.6 1.7 69
2019-04-05 11:00:00 14.8 33 Oeste 48 Oeste 0 947.8 1.5 64
2019-04-05 10:00:00 13.8 32 Oeste 46 Oeste 0 947.4 1.4 69
2019-04-05 09:00:00 12 32 Oeste 46 Oeste 0 946.9 1.3 86
2019-04-05 08:00:00 11.1 30 Oeste 42 Oeste 0 946.3 0.8 89
2019-04-05 07:00:00 10.8 28 Oeste 52 Noroeste 0.2 946 0.2 93
2019-04-05 06:00:00 11.1 31 Noroeste 45 Noroeste 0 945.6 -0.3 92
2019-04-05 05:00:00 10.3 26 Oeste 37 Oeste 0 945.5 -0.9 89
2019-04-05 04:00:00 11.1 29 Oeste 42 Oeste 0 945.8 -0.3 92
2019-04-05 03:00:00 11 27 Noroeste 46 Oeste 0.2 945.9 0.2 92
2019-04-05 02:00:00 11.6 27 Oeste 50 Oeste 0 946.4 0.8 92
2019-04-05 01:00:00 11.4 33 Noroeste 48 Noroeste 0 946.1 0.8 92
2019-04-05 00:00:00 11.6 29 Noroeste 42 Noroeste 0 945.7 1 93
2019-04-04 23:00:00 11.8 26 Noroeste 39 Norte 0 945.6 1.5 93
2019-04-04 22:00:00 11.9 26 Noroeste 37 Oeste 0 945.3 1.6 91
2019-04-04 21:00:00 12 26 Noroeste 41 Noroeste 0 944.7 0.9 92
2019-04-04 20:00:00 12.5 26 Noroeste 41 Noroeste 0 944.1 0.3 92
2019-04-04 19:00:00 13.3 29 Noroeste 52 Noroeste 0 943.7 -0.1 81
2019-04-04 18:00:00 13.8 33 Noroeste 50 Noroeste 0 943.8 -0.4 79
2019-04-04 17:00:00 13.7 30 Noroeste 48 Noroeste 0 943.8 -0.5 80
2019-04-04 16:00:00 15.4 35 Noroeste 50 Oeste 0 943.8 -0.7 75
2019-04-04 15:00:00 13.9 33 Oeste 50 Oeste 0 944.2 0.1 83
2019-04-04 14:00:00 15.2 32 Oeste 42 Oeste 0 944.3 0.5 78
2019-04-04 13:00:00 13.3 30 Oeste 45 Oeste 0.3 944.5 1.4 92
2019-04-04 12:00:00 14.4 33 Oeste 50 Oeste 0 944.1 1.5 80
2019-04-04 11:00:00 13.3 33 Oeste 48 Oeste 0 943.8 2.1 88
2019-04-04 10:00:00 11.6 31 Oeste 41 Oeste 0.1 943.1 1.7 94
2019-04-04 09:00:00 11.1 26 Oeste 35 Oeste 0 942.6 1.4 95
2019-04-04 08:00:00 10 24 Oeste 33 Oeste 0.9 941.7 0.4 96
2019-04-04 07:00:00 10.3 18 Oeste 26 Oeste 0 941.4 0.1 95
2019-04-04 06:00:00 10.3 9 Oeste 22 Oeste 0 941.2 -0.4 96
2019-04-04 05:00:00 10 12 Oeste 24 Oeste 0 941.3 -1.1 91
2019-04-04 04:00:00 10.4 15 Oeste 24 Oeste 0 941.3 -1.4 89
2019-04-04 03:00:00 10.3 14 Oeste 24 Oeste 0.5 941.6 -1.5 95
2019-04-04 02:00:00 10.8 16 Oeste 24 Noroeste 0 942.4 -0.1 95
2019-04-04 01:00:00 10 17 Oeste 26 Oeste 0 942.7 0.8 90
2019-04-04 00:00:00 11.1 11 Oeste 42 Oeste 0.6 943.1 1.9 90
2019-04-03 23:00:00 11.8 29 Oeste 45 Oeste 0.5 942.5 1.4 94
2019-04-03 22:00:00 12.2 30 Oeste 48 Oeste 0 941.9 1.5 94
2019-04-03 21:00:00 12.1 33 Noroeste 48 Oeste 2.8 941.2 0.8 94
2019-04-03 20:00:00 12.6 31 Oeste 55 Oeste 0.8 941.1 0.6 93
2019-04-03 19:00:00 12.8 46 Oeste 63 Oeste 0.4 940.4 -0.6 92
2019-04-03 18:00:00 14.4 37 Oeste 54 Oeste 0 940.4 -0.8 79
2019-04-03 17:00:00 15.1 36 Oeste 58 Oeste 0 940.5 -1.4 74
2019-04-03 16:00:00 15.2 36 Oeste 54 Oeste 0 941 -1.4 75
2019-04-03 15:00:00 16 35 Oeste 48 Oeste 0 941.2 -1.5 70
2019-04-03 14:00:00 15.8 33 Oeste 48 Oeste 0 941.9 -0.5 64
2019-04-03 13:00:00 15.3 34 Oeste 45 Oeste 0 942.4 -0.1 70
2019-04-03 12:00:00 14.5 28 Oeste 45 Oeste 0 942.7 1.4 80
2019-04-03 11:00:00 13.2 28 Oeste 37 Oeste 1.9 942.4 1.3 94
2019-04-03 10:00:00 11.7 19 Oeste 39 Oeste 3.7 942.5 1.9 93
2019-04-03 09:00:00 11.9 17 Noroeste 28 Noroeste 0 941.3 0.9 91
2019-04-03 08:00:00 9.3 14 Oeste 24 Oeste 0 941.1 0.5 93
2019-04-03 07:00:00 10.6 20 Oeste 28 Oeste 0 940.6 -0.3 93
2019-04-03 06:00:00 10.5 15 Oeste 22 Oeste 0 940.4 -0.9 93
2019-04-03 05:00:00 10.6 17 Oeste 22 Oeste 0 940.6 -1.1 94
2019-04-03 04:00:00 10.8 14 Oeste 18 Oeste 0 940.9 -1.2 94
2019-04-03 03:00:00 11 14 Oeste 21 Oeste 0 941.3 -1 95
2019-04-03 02:00:00 11 15 Oeste 22 Oeste 0 941.7 -0.2 97
2019-04-03 01:00:00 11.5 18 Oeste 24 Oeste 0 942.1 0.8 98
2019-04-03 00:00:00 11.4 16 Oeste 30 Oeste 0 942.3 1.8 98
2019-04-02 23:00:00 11.8 17 Oeste 28 Oeste 0 941.9 1.6 98
2019-04-02 22:00:00 12 17 Oeste 26 Oeste 0 941.3 1.1 98
2019-04-02 21:00:00 12 20 Oeste 30 Oeste 0 940.5 0.3 98
2019-04-02 20:00:00 12.6 22 Oeste 30 Oeste 0.2 940.3 0 98
2019-04-02 19:00:00 13.3 22 Oeste 30 Oeste 0 940.2 -0.5 96
2019-04-02 18:00:00 13.3 14 Noroeste 21 Oeste 0.2 940.2 -0.9 96
2019-04-02 17:00:00 13.6 9 Oeste 15 Sudoeste 0.1 940.3 -1.2 93
2019-04-02 16:00:00 13.3 4 Sudoeste 13 Sur 2.1 940.7 -0.9 96
2019-04-02 15:00:00 13.3 4 Oeste 21 Oeste 0.3 941.1 -0.8 94
2019-04-02 14:00:00 14 3 Sur 21 Sur 0.2 941.5 -0.2 93
2019-04-02 13:00:00 15.3 11 Sudeste 21 Sudeste 0 941.6 0.3 78
2019-04-02 12:00:00 13.1 11 Sur 18 Sur 0.1 941.9 1 89
2019-04-02 11:00:00 12.9 8 Sudeste 15 Sudeste 0 941.7 1.3 97
2019-04-02 10:00:00 11.9 3 Nordeste 13 Sudeste 0 941.3 0.9 98
2019-04-02 09:00:00 12.3 6 Sudeste 21 Este 0.4 940.9 0.2 98
2019-04-02 08:00:00 12.5 11 Este 26 Este 0.1 940.4 -0.4 98
2019-04-02 07:00:00 11.8 7 Sudeste 13 Sudeste 0 940.4 -0.5 96
2019-04-02 06:00:00 10.8 7 Sudoeste 11 Oeste 0 940.7 -0.7 97
2019-04-02 05:00:00 11.1 6 Oeste 17 Oeste 0 940.8 -1.2 98
2019-04-02 04:00:00 12.3 11 Este 17 Este 0 940.9 -1.9 98
2019-04-02 03:00:00 11.1 0 Calma 17 Oeste 0 941.4 -1.8 98
2019-04-02 02:00:00 10 10 Oeste 21 Oeste 0 942 -1.2 97
2019-04-02 01:00:00 12.2 4 Oeste 17 Oeste 0.3 942.8 0.1 97
2019-04-02 00:00:00 12 10 Sur 21 Sur 1.2 943.2 0.7 97
2019-04-01 23:00:00 12 0 Calma 13 Oeste 1.1 943.2 1.1 97
2019-04-01 22:00:00 12.2 10 Oeste 15 Oeste 0.6 942.7 0.2 95
2019-04-01 21:00:00 13 4 Sur 15 Sudeste 0 942.5 0.1 93
2019-04-01 20:00:00 12.9 10 Sudeste 15 Sudeste 0 942.1 -0.3 90
2019-04-01 19:00:00 13.1 9 Sur 15 Sur 0 942.5 -0.5 91
2019-04-01 18:00:00 12.8 5 Sudeste 21 Sur 0 942.4 -1 93
2019-04-01 17:00:00 12.6 12 Sur 28 Sur 0.2 942.4 -1.6 93
2019-04-01 16:00:00 11.8 17 Sur 28 Sur 2.2 943 -1.5 93
2019-04-01 15:00:00 14.4 11 Este 18 Este 0 943.4 -1.7 84
2019-04-01 14:00:00 15 10 Sudeste 18 Sudeste 0 944 -1.1 80
2019-04-01 13:00:00 14.6 13 Este 21 Este 0 944.5 -0.6 80
2019-04-01 12:00:00 14.4 12 Este 22 Sudeste 0 945.1 0.4 82
2019-04-01 11:00:00 14.4 8 Sudeste 13 Este 0 945.1 0.5 78
2019-04-01 10:00:00 13.6 5 Noroeste 13 Oeste 0 945.1 0.8 88
2019-04-01 09:00:00 12.1 11 Oeste 15 Oeste 0 944.7 0.7 88
2019-04-01 08:00:00 11.5 12 Oeste 15 Oeste 0 944.6 0.4 85
2019-04-01 07:00:00 11.6 9 Oeste 17 Oeste 0 944.3 -0.1 84
2019-04-01 06:00:00 11.5 10 Sudoeste 21 Oeste 0 944 -0.7 92
2019-04-01 05:00:00 11.2 15 Oeste 22 Oeste 0 944.2 -1.4 89
2019-04-01 04:00:00 11.1 8 Oeste 24 Oeste 0 944.4 -1.7 89
2019-04-01 03:00:00 11.1 20 Oeste 32 Oeste 0 944.7 -1.5 94
2019-04-01 02:00:00 12.2 12 Oeste 21 Oeste 0 945.6 -0.5 93
2019-04-01 01:00:00 12.2 14 Oeste 26 Oeste 0 946.1 0.4 90
2019-04-01 00:00:00 12.7 16 Noroeste 26 Oeste 0 946.2 0.7 90
2019-03-31 23:00:00 12.9 16 Noroeste 32 Oeste 0 946.1 0.7 93
2019-03-31 22:00:00 12.8 18 Noroeste 30 Oeste 0 945.7 0.4 95
2019-03-31 21:00:00 13.2 22 Oeste 30 Noroeste 0 945.5 0.4 93
2019-03-31 20:00:00 13.7 14 Oeste 26 Oeste 0 945.4 0.1 86
2019-03-31 19:00:00 14 16 Oeste 26 Noroeste 0 945.3 -0.3 84
2019-03-31 18:00:00 14.8 17 Oeste 26 Oeste 0 945.1 -0.7 78
2019-03-31 17:00:00 14.5 15 Oeste 24 Noroeste 0 945.3 -0.9 81
2019-03-31 16:00:00 14.9 18 Noroeste 28 Noroeste 0 945.6 -0.9 77
2019-03-31 15:00:00 15.4 18 Noroeste 30 Oeste 0 945.8 -1.2 75
2019-03-31 14:00:00 16.2 16 Noroeste 30 Noroeste 0 946.2 -0.6 77
2019-03-31 13:00:00 16.2 17 Noroeste 30 Noroeste 0 946.5 0.2 76
2019-03-31 12:00:00 15.9 19 Oeste 32 Oeste 0 947 1 70
2019-03-31 11:00:00 15.6 21 Oeste 33 Oeste 0 946.8 1.3 72
2019-03-31 10:00:00 15 23 Oeste 35 Oeste 0 946.3 1.3 72
2019-03-31 09:00:00 11.8 12 Oeste 21 Oeste 0 946 1.2 82
2019-03-31 08:00:00 11.3 10 Oeste 24 Oeste 0 945.5 0 80
2019-03-31 07:00:00 10.8 19 Oeste 28 Oeste 0 945 -1.1 81
2019-03-31 06:00:00 8.3 16 Oeste 18 Oeste 0 944.8 -1.9 87
2019-03-31 05:00:00 9.1 10 Oeste 26 Oeste 0 945.5 -1.5 84
2019-03-31 04:00:00 10.9 18 Oeste 26 Oeste 0 946.1 -1.2 83
2019-03-31 00:00:00 10.9 16 Oeste 21 Oeste 0 947.3 -0.1 71
2019-03-30 23:00:00 10.8 13 Oeste 18 Oeste 0 947.4 0.7 74
2019-03-30 22:00:00 10.2 13 Oeste 22 Oeste 0 947.7 1.4 81
2019-03-30 21:00:00 11 16 Oeste 22 Oeste 0 947.4 1.3 91
2019-03-30 20:00:00 11.6 13 Oeste 30 Oeste 0 946.7 0.6 88
2019-03-30 19:00:00 13.2 21 Noroeste 32 Noroeste 0 946.3 0.3 77
2019-03-30 18:00:00 14.8 16 Noroeste 26 Noroeste 0 946.1 0.3 71
2019-03-30 17:00:00 15.7 15 Oeste 28 Noroeste 0 946.1 -0.1 68
2019-03-30 16:00:00 15.7 18 Oeste 28 Noroeste 0 946 -0.6 67
2019-03-30 15:00:00 16.6 14 Noroeste 30 Norte 0 945.8 -1 58
2019-03-30 14:00:00 16.3 19 Oeste 30 Noroeste 0 946.2 -0.6 60
2019-03-30 13:00:00 16.2 21 Oeste 32 Oeste 0 946.6 0 63
2019-03-30 12:00:00 15.5 19 Noroeste 30 Noroeste 0 946.8 0.9 71
2019-03-30 11:00:00 15.5 22 Oeste 35 Oeste 0 946.8 1.4 65
2019-03-30 10:00:00 14.9 20 Oeste 32 Oeste 0 946.6 1.4 66
2019-03-30 09:00:00 13.4 18 Oeste 24 Oeste 0 945.9 1.3 74
2019-03-30 08:00:00 10.6 17 Oeste 24 Oeste 0 945.4 0.9 90
2019-03-30 07:00:00 10.1 19 Oeste 35 Oeste 2.1 945.2 0.6 96
2019-03-30 06:00:00 10.5 18 Oeste 28 Oeste 0.1 944.6 -0.2 95
2019-03-30 05:00:00 9.9 14 Oeste 24 Oeste 0 944.5 -0.8 92
2019-03-30 04:00:00 9.9 17 Oeste 24 Oeste 0 944.6 -1.3 79
2019-03-30 03:00:00 11 11 Sudoeste 17 Oeste 0 944.8 -1.3 70
2019-03-30 02:00:00 10.9 12 Oeste 17 Oeste 0 945.3 -0.8 80
2019-03-30 01:00:00 10.1 11 Oeste 17 Sudoeste 0 945.9 -0.2 80
2019-03-30 00:00:00 11.9 9 Sur 15 Sur 0 946.1 0.3 74
2019-03-29 23:00:00 11.5 9 Oeste 18 Oeste 0 946.1 0.9 66
2019-03-29 22:00:00 11.5 14 Oeste 17 Oeste 0 946.1 1.1 71
2019-03-29 21:00:00 11.1 13 Oeste 21 Oeste 0 945.8 1 82
2019-03-29 20:00:00 11.4 15 Oeste 24 Oeste 0 945.2 0.4 76
2019-03-29 19:00:00 11.5 15 Oeste 28 Oeste 0.3 945 0 84
2019-03-29 18:00:00 11.9 17 Oeste 26 Oeste 0.1 944.8 -0.4 85
2019-03-29 17:00:00 12.1 15 Oeste 24 Oeste 0 944.8 -1.1 79
2019-03-29 16:00:00 12.6 17 Oeste 24 Oeste 0.2 945 -1.4 93
2019-03-29 15:00:00 13.1 7 Oeste 17 Oeste 1.1 945.2 -1.8 91
2019-03-29 14:00:00 12.9 14 Oeste 21 Oeste 0.1 945.9 -0.7 93
2019-03-29 13:00:00 12.9 10 Oeste 18 Oeste 11.7 946.4 -0.2 95
2019-03-29 12:00:00 13.2 9 Noroeste 18 Este 3.5 947 0.5 90
2019-03-29 11:00:00 14.5 13 Este 22 Este 0 946.6 0.4 86
2019-03-29 10:00:00 14.1 10 Sudeste 15 Este 0 946.6 0.8 90
2019-03-29 09:00:00 12.6 6 Sudeste 11 Sudeste 0 946.5 1.1 93
2019-03-29 08:00:00 11.9 5 Sudoeste 11 Sudoeste 0 946.2 1 95
2019-03-29 07:00:00 10.6 3 Sudeste 8 Sudeste 0 945.8 0.3 95
2019-03-29 06:00:00 11.4 0 Calma 11 Sur 0 945.4 -0.4 94
2019-03-29 05:00:00 10.3 3 Noroeste 8 Oeste 0 945.2 -0.9 96
2019-03-29 04:00:00 12.3 0 Calma 11 Este 0 945.5 -1.1 97
2019-03-29 03:00:00 12.4 9 Este 13 Este 0 945.8 -1.2 97
2019-03-29 02:00:00 12.6 6 Sudeste 13 Este 0 946.1 -1.2 97
2019-03-29 01:00:00 12.6 9 Este 15 Sudeste 0 946.6 -0.7 96
2019-03-29 00:00:00 12.8 10 Este 15 Este 0 947 -0.2 96
2019-03-28 23:00:00 13.1 8 Este 17 Este 0 947.3 0.5 95
2019-03-28 22:00:00 13.1 9 Sudeste 15 Sudeste 0 947.3 1.1 95
2019-03-28 21:00:00 13 8 Sudeste 17 Este 0 947.2 1.1 95
2019-03-28 20:00:00 13 11 Este 15 Este 0 946.8 0.8 94
2019-03-28 19:00:00 13.3 6 Noroeste 11 Noroeste 0 946.2 0.3 93
2019-03-28 18:00:00 13.7 5 Oeste 15 Oeste 0.2 946.1 0 91
2019-03-28 17:00:00 14.3 10 Este 15 Este 0 946 -0.6 87
2019-03-28 16:00:00 14.3 7 Sudeste 21 Sudeste 0 945.9 -1 86
2019-03-28 15:00:00 15 12 Este 21 Este 0 946.1 -1 83
2019-03-28 14:00:00 14.7 14 Este 22 Este 0 946.6 -0.7 84
2019-03-28 13:00:00 15 12 Este 24 Este 0 946.9 -0.3 78
2019-03-28 12:00:00 16.7 16 Este 24 Este 0 947.1 0.1 71
2019-03-28 11:00:00 16.9 11 Este 21 Este 0 947.3 0.6 71
2019-03-28 10:00:00 15.4 9 Este 17 Este 0 947.2 0.8 76
2019-03-28 09:00:00 13.6 8 Este 13 Sudeste 0 947 1 86
2019-03-28 08:00:00 12.7 0 Calma 9 Sudoeste 0 946.7 1 90
2019-03-28 07:00:00 10.6 6 Sur 15 Oeste 0 946.4 0.6 94
2019-03-28 06:00:00 10.7 13 Oeste 17 Oeste 0 946 -0.1 94
2019-03-28 05:00:00 10.7 13 Oeste 17 Oeste 0 945.7 -0.5 92
2019-03-28 04:00:00 10.9 9 Oeste 11 Oeste 0 945.8 -0.8 94
2019-03-28 03:00:00 11.3 9 Sudoeste 13 Sudoeste 0 946.1 -0.8 96
2019-03-28 02:00:00 11.4 8 Oeste 13 Oeste 0 946.2 -0.5 95
2019-03-28 01:00:00 11.9 10 Oeste 15 Oeste 0 946.6 0 95
2019-03-28 00:00:00 12.6 9 Noroeste 17 Oeste 0 946.9 0.9 93
2019-03-27 23:00:00 12.9 10 Noroeste 17 Noroeste 0 946.7 1.3 93
2019-03-27 22:00:00 12.7 14 Noroeste 24 Oeste 0 946.6 1.4 92
2019-03-27 21:00:00 13.3 18 Noroeste 28 Oeste 0 946 1.3 90
2019-03-27 20:00:00 13.3 20 Oeste 26 Oeste 0 945.4 1 88
2019-03-27 19:00:00 13.9 15 Noroeste 30 Oeste 0 945.2 0.6 86
2019-03-27 18:00:00 14.5 23 Noroeste 32 Noroeste 0 944.7 0.1 83
2019-03-27 17:00:00 15.4 17 Noroeste 26 Noroeste 0 944.4 -0.4 77
2019-03-27 16:00:00 15.6 17 Noroeste 30 Noroeste 0 944.6 -0.6 76
2019-03-27 15:00:00 16.5 20 Noroeste 30 Noroeste 0 944.6 -0.7 71
2019-03-27 14:00:00 16.5 18 Noroeste 28 Noroeste 0 944.8 -0.7 71
2019-03-27 13:00:00 16.9 16 Oeste 28 Noroeste 0 945.2 0.2 71
2019-03-27 12:00:00 16.7 19 Noroeste 30 Noroeste 0 945.3 0.8 74
2019-03-27 11:00:00 16.3 20 Noroeste 33 Noroeste 0 945.5 1.9 76
2019-03-27 10:00:00 15.5 21 Oeste 28 Oeste 0 945 1.8 81
2019-03-27 09:00:00 14.1 17 Noroeste 33 Oeste 0 944.5 2 87
2019-03-27 08:00:00 13 22 Noroeste 30 Noroeste 0 943.6 1.6 94
2019-03-27 07:00:00 12.9 21 Noroeste 32 Noroeste 0 943.2 1.1 96
2019-03-27 06:00:00 12.8 16 Noroeste 28 Noroeste 0 942.5 0.4 96
2019-03-27 05:00:00 13 20 Noroeste 39 Oeste 0 942 -0.2 96
2019-03-27 04:00:00 13.2 18 Noroeste 33 Oeste 0 942.1 -0.4 96
2019-03-27 03:00:00 13.1 26 Oeste 42 Noroeste 0 942.1 -0.3 96
2019-03-27 02:00:00 13.2 23 Noroeste 37 Noroeste 0.1 942.2 0 95
2019-03-27 01:00:00 13.2 21 Oeste 32 Oeste 0 942.5 0.5 93
2019-03-27 00:00:00 13.1 20 Oeste 33 Oeste 0 942.4 1.2 89
2019-03-26 23:00:00 12.8 20 Oeste 30 Oeste 0 942.2 1.7 87
2019-03-26 22:00:00 12.5 21 Oeste 42 Noroeste 0 942 2 95
2019-03-26 21:00:00 13.2 32 Oeste 41 Oeste 0 941.2 1.6 92
2019-03-26 20:00:00 13.6 27 Noroeste 33 Oeste 0 940.5 1.5 89
2019-03-26 19:00:00 14 18 Noroeste 24 Noroeste 0 940 1.4 82
2019-03-26 18:00:00 16 13 Noroeste 22 Noroeste 0 939.6 1.1 72
2019-03-26 17:00:00 16.6 13 Noroeste 30 Noroeste 0 939 0.6 71
2019-03-26 16:00:00 16.9 18 Noroeste 28 Oeste 0 938.6 -0.2 69
2019-03-26 15:00:00 15.6 3 Oeste 21 Este 0 938.5 -0.5 80
2019-03-26 14:00:00 16.9 12 Sudeste 21 Este 0 938.4 -0.4 79
2019-03-26 13:00:00 15.8 12 Este 18 Este 0 938.8 0.5 82
2019-03-26 12:00:00 15.6 5 Este 18 Este 0 939 1.2 79
2019-03-26 11:00:00 16.1 7 Sudeste 21 Este 0 938.8 1.6 75
2019-03-26 10:00:00 16.3 12 Este 24 Oeste 0 938.3 1.7 76
2019-03-26 09:00:00 13.7 16 Oeste 30 Oeste 0 937.8 1.6 87
2019-03-26 08:00:00 11.4 17 Oeste 22 Oeste 0 937.2 1.2 93
2019-03-26 07:00:00 10.1 12 Oeste 30 Oeste 0 936.6 0.5 93
2019-03-26 06:00:00 10.9 19 Oeste 32 Noroeste 0 936.2 0 94
2019-03-26 05:00:00 10.4 19 Oeste 30 Oeste 0 936 -0.8 95
2019-03-26 04:00:00 10.7 18 Oeste 28 Noroeste 0 936.1 -0.8 87
2019-03-26 03:00:00 10.3 19 Oeste 26 Oeste 0 936.2 -0.9 87
2019-03-26 02:00:00 9.6 9 Oeste 15 Oeste 0 936.8 -0.6 90
2019-03-26 01:00:00 10.4 9 Oeste 11 Oeste 0 936.9 -0.3 91
2019-03-26 00:00:00 10.7 6 Oeste 11 Oeste 0 937.1 0.2 90
2019-03-25 23:00:00 10.7 7 Oeste 11 Oeste 0 937.4 0.9 95
2019-03-25 22:00:00 11.1 2 Sudoeste 11 Este 0 937.2 1 96
2019-03-25 21:00:00 11.4 10 Este 15 Este 0 936.9 0.8 96
2019-03-25 20:00:00 12.2 8 Este 15 Este 0 936.5 0.7 93
2019-03-25 19:00:00 12.5 7 Sudeste 21 Sudeste 0 936.2 0.5 88
2019-03-25 18:00:00 12.8 12 Sudeste 24 Sudeste 0 936.1 0 87
2019-03-25 17:00:00 13.3 13 Sudeste 30 Sudeste 0 935.8 -1 82
2019-03-25 16:00:00 14.1 18 Sudeste 28 Sur 0 935.7 -2.5 77
2019-03-25 15:00:00 14.8 14 Sudeste 26 Sudeste 0 936.1 -2.9 82
2019-03-25 14:00:00 14.3 14 Sudeste 22 Este 0 936.8 -2.4 87
2019-03-25 13:00:00 12.4 5 Sudeste 15 Este 0.6 938.2 -0.7 94
2019-03-25 12:00:00 11.8 10 Este 17 Oeste 1.2 939 0.3 93
2019-03-25 11:00:00 12.1 12 Sur 18 Sur 0.7 939.2 0.8 88
2019-03-25 10:00:00 12.5 10 Sudeste 21 Sudeste 0 938.9 1 93
2019-03-25 09:00:00 12.3 8 Este 13 Este 0 938.7 0.9 97
2019-03-25 08:00:00 11.9 7 Este 15 Este 0 938.4 0.3 98
2019-03-25 07:00:00 11.5 8 Sudeste 18 Sur 0 937.9 -0.4 97
2019-03-25 06:00:00 11.4 12 Sudeste 21 Sur 0 937.8 -1.1 98
2019-03-25 05:00:00 11.5 11 Este 18 Este 0 938.1 -1.3 98
2019-03-25 04:00:00 11.7 13 Este 18 Sudeste 0 938.3 -1.5 98
2019-03-25 03:00:00 12 12 Este 17 Este 0 938.9 -1.5 98
2019-03-25 02:00:00 12.2 8 Sudeste 17 Sudeste 0.1 939.4 -1.4 97
2019-03-25 01:00:00 12 10 Sudeste 15 Sudeste 0 939.8 -1.2 97
2019-03-25 00:00:00 12.2 10 Sudeste 18 Sur 0.4 940.4 -0.4 97
2019-03-24 23:00:00 12.4 9 Sudeste 15 Sur 1.1 940.8 0.5 96
2019-03-24 22:00:00 12.8 8 Sudeste 15 Este 0 941 1.1 93
2019-03-24 21:00:00 13 8 Sudeste 11 Sudeste 0 940.8 0.8 88
2019-03-24 20:00:00 13.3 6 Sudeste 13 Este 0 940.3 -0.1 86
2019-03-24 19:00:00 13.6 9 Sudeste 21 Sudeste 0 939.9 -0.8 81
2019-03-24 18:00:00 14.6 12 Sur 18 Sur 0 940 -0.9 76
2019-03-24 17:00:00 15.7 9 Oeste 30 Oeste 0 940.4 -1.1 58
2019-03-24 16:00:00 15.4 20 Oeste 33 Noroeste 0 940.7 -1.3 64
2019-03-24 15:00:00 16 14 Oeste 26 Oeste 0 940.9 -1.5 62
2019-03-24 14:00:00 16.6 13 Noroeste 26 Noroeste 0 941.5 -1.1 59
2019-03-24 13:00:00 15 16 Oeste 24 Noroeste 0 942 -1.3 64
2019-03-24 12:00:00 15.1 8 Noroeste 17 Norte 0 942.4 -0.4 64
2019-03-24 11:00:00 15.1 11 Nordeste 18 Nordeste 0 942.6 -0.1 67
2019-03-24 10:00:00 15.6 9 Norte 15 Norte 0 943.3 0.8 68
2019-03-24 09:00:00 13.2 11 Noroeste 18 Noroeste 0 942.8 0.7 80
2019-03-24 08:00:00 12.3 13 Oeste 17 Noroeste 0 942.7 1.1 80
2019-03-24 07:00:00 9.9 12 Oeste 21 Noroeste 0 942.5 0.6 86
2019-03-24 06:00:00 10.7 12 Noroeste 21 Noroeste 0 942.1 -0.5 85
2019-03-24 05:00:00 11.1 16 Noroeste 26 Noroeste 0 941.6 -1.7 83
2019-03-24 04:00:00 11.9 19 Noroeste 30 Oeste 0 941.9 -1.4 85
2019-03-24 03:00:00 12 22 Noroeste 30 Oeste 0 942.6 -0.8 93
2019-03-24 02:00:00 11.8 19 Noroeste 35 Noroeste 0 943.3 -0.4 89
2019-03-24 01:00:00 12.2 20 Noroeste 28 Noroeste 0 943.3 -0.5 86
2019-03-24 00:00:00 12.5 20 Noroeste 45 Oeste 0 943.4 -0.4 90
2019-03-23 23:00:00 12.4 30 Noroeste 45 Noroeste 0 943.7 0.1 91
2019-03-23 22:00:00 12.2 34 Noroeste 45 Noroeste 0 943.8 0.5 88
2019-03-23 21:00:00 12.3 34 Oeste 50 Oeste 0 943.8 0.4 87
2019-03-23 20:00:00 12 30 Noroeste 41 Noroeste 0 943.6 0 83
2019-03-23 19:00:00 12.6 28 Noroeste 45 Noroeste 0 943.3 -0.4 79
2019-03-23 18:00:00 13.4 27 Noroeste 41 Noroeste 0 943.4 -0.6 81
2019-03-23 17:00:00 13.5 28 Noroeste 42 Oeste 0 943.6 -0.4 81
2019-03-23 16:00:00 14.4 31 Noroeste 48 Noroeste 0 943.7 -0.7 73
2019-03-23 15:00:00 15 32 Noroeste 52 Noroeste 0 944 -0.5 71
2019-03-23 14:00:00 15.7 36 Noroeste 50 Noroeste 0 944 -1.2 68
2019-03-23 13:00:00 16.4 31 Noroeste 52 Noroeste 0 944.4 -0.8 58
2019-03-23 12:00:00 15.8 35 Noroeste 48 Noroeste 0 944.5 -0.6 65
2019-03-23 11:00:00 14.7 37 Noroeste 54 Noroeste 0 945.2 0.4 72
2019-03-23 10:00:00 14 31 Noroeste 45 Norte 0 945.2 0.8 71
2019-03-23 09:00:00 12.5 30 Noroeste 45 Noroeste 0 945.1 0.9 82
2019-03-23 08:00:00 12.6 33 Noroeste 50 Noroeste 0 944.8 0.6 76
2019-03-23 07:00:00 11.9 32 Noroeste 48 Noroeste 0 944.4 -0.1 78
2019-03-23 06:00:00 11.6 35 Noroeste 50 Noroeste 0 944.2 -0.9 80
2019-03-23 05:00:00 11.8 34 Noroeste 52 Noroeste 0 944.2 -1.4 86
2019-03-23 04:00:00 11.9 27 Noroeste 42 Noroeste 0 944.5 -1.3 85
2019-03-23 03:00:00 12 26 Noroeste 39 Oeste 0 945.1 -0.4 84
2019-03-23 02:00:00 11.8 22 Noroeste 32 Noroeste 0 945.6 -0.2 83
2019-03-23 01:00:00 12.3 24 Noroeste 54 Noroeste 0 945.8 0.5 85
2019-03-23 00:00:00 12.3 30 Noroeste 48 Noroeste 0 945.5 0.1 83
2019-03-22 23:00:00 12.5 24 Noroeste 48 Noroeste 0 945.8 1.3 85
2019-03-22 22:00:00 12.5 31 Noroeste 46 Norte 0 945.3 1.1 84
2019-03-22 21:00:00 12.7 28 Noroeste 45 Noroeste 0 945.4 1.4 83
2019-03-22 20:00:00 12.8 27 Noroeste 46 Noroeste 0 944.5 0.5 81
2019-03-22 19:00:00 13.1 30 Noroeste 45 Noroeste 0 944.2 0.1 79
2019-03-22 18:00:00 13.5 28 Noroeste 45 Noroeste 0 944 -0.4 78
2019-03-22 17:00:00 14.4 29 Noroeste 42 Noroeste 0 944 -1.3 75
2019-03-22 16:00:00 16 23 Noroeste 39 Noroeste 0 944.1 -2.1 65
2019-03-22 15:00:00 15.8 23 Noroeste 37 Noroeste 0 944.4 -1.9 63
2019-03-22 14:00:00 15.8 17 Norte 30 Norte 0 945.3 -1.2 63
2019-03-22 13:00:00 14.7 16 Noroeste 30 Norte 0 946.2 -0.1 69
2019-03-22 12:00:00 14 17 Norte 30 Noroeste 0 946.3 0.4 74
2019-03-22 11:00:00 13.1 22 Noroeste 33 Noroeste 0 946.5 1 78
2019-03-22 10:00:00 12.8 22 Noroeste 45 Noroeste 0 946.3 1.7 73
2019-03-22 09:00:00 12.1 28 Noroeste 42 Norte 0 945.9 1.4 79
2019-03-22 08:00:00 11.8 24 Noroeste 52 Oeste 0 945.5 0.8 78
2019-03-22 07:00:00 11.6 34 Noroeste 48 Oeste 0 944.6 -0.2 80
2019-03-22 06:00:00 11.7 28 Noroeste 48 Noroeste 0 944.5 -0.9 81
2019-03-22 05:00:00 11.4 27 Noroeste 45 Noroeste 0 944.7 -1.3 80
2019-03-22 04:00:00 11.4 26 Noroeste 39 Noroeste 0 944.8 -1.8 83
2019-03-22 03:00:00 11.7 23 Noroeste 30 Noroeste 0 945.4 -1.5 85
2019-03-22 02:00:00 11.4 16 Noroeste 26 Noroeste 0 946 -0.8 82
2019-03-22 01:00:00 12 12 Noroeste 18 Norte 0 946.6 -0.3 83
2019-03-22 00:00:00 11.7 8 Norte 22 Noroeste 0 946.9 0.6 83
2019-03-21 23:00:00 11.8 13 Noroeste 24 Norte 0 946.8 0.9 85
2019-03-21 22:00:00 11.2 10 Noroeste 15 Noroeste 0 946.9 1.4 86
2019-03-21 21:00:00 11.5 10 Noroeste 21 Norte 0 946.3 1.3 82
2019-03-21 20:00:00 12.8 8 Norte 17 Norte 0 945.9 1.1 78
2019-03-21 19:00:00 14.7 10 Norte 17 Norte 0 945.5 0.4 63
2019-03-21 18:00:00 17.1 4 Este 18 Este 0 945 -0.5 53
2019-03-21 17:00:00 17.7 7 Sudeste 24 Este 0 944.8 -1.1 51
2019-03-21 16:00:00 17.8 13 Este 26 Este 0 945.1 -1.6 55
2019-03-21 15:00:00 17.6 17 Este 28 Este 0 945.5 -1.6 62
2019-03-21 14:00:00 17.2 15 Sudeste 26 Este 0 945.9 -1.4 67
2019-03-21 13:00:00 17.3 18 Sudeste 33 Sudeste 0 946.7 0.1 69
2019-03-21 12:00:00 14.9 19 Este 30 Este 0 947.1 0.8 78
2019-03-21 11:00:00 16.5 19 Sudeste 28 Sudeste 0 947.3 1.2 72
2019-03-21 10:00:00 15.4 17 Sudeste 26 Sudeste 0 946.6 0.9 71
2019-03-21 09:00:00 14.1 12 Este 18 Este 0 946.3 1 77
2019-03-21 08:00:00 11.6 5 Sur 13 Sur 0 946.1 1 86
2019-03-21 07:00:00 10.8 9 Sur 15 Sur 0 945.7 0.4 89
2019-03-21 06:00:00 11 11 Sur 15 Sur 0 945.3 -0.3 89
2019-03-21 05:00:00 10.5 8 Sur 13 Oeste 0 945.1 -1 85
2019-03-21 04:00:00 11.3 13 Oeste 18 Oeste 0 945.3 -1.1 86
2019-03-21 03:00:00 10.9 14 Oeste 18 Oeste 0 945.6 -1.2 89
2019-03-21 02:00:00 10.9 14 Oeste 21 Oeste 0 946.1 -1.3 90
2019-03-21 01:00:00 11 14 Oeste 21 Oeste 0 946.4 -0.9 91
2019-03-21 00:00:00 11.1 10 Oeste 18 Oeste 0 946.8 -0.2 90
2019-03-20 23:00:00 11.2 16 Oeste 22 Oeste 0 947.4 1 91
2019-03-20 22:00:00 11.3 14 Oeste 26 Oeste 0 947.3 1.5 90
2019-03-20 21:00:00 11.5 17 Oeste 28 Noroeste 0 947 1.6 92
2019-03-20 20:00:00 12.8 22 Oeste 30 Oeste 0 946.4 1.1 86
2019-03-20 19:00:00 13.9 22 Oeste 30 Oeste 0 945.8 0.5 81
2019-03-20 18:00:00 15.9 21 Oeste 30 Oeste 0 945.4 -0.3 73
2019-03-20 17:00:00 18.2 12 Oeste 22 Oeste 0 945.3 -0.7 65
2019-03-20 16:00:00 18.3 11 Sudeste 21 Este 0 945.3 -1.5 65
2019-03-20 15:00:00 17.7 13 Sudeste 28 Este 0 945.7 -1.6 68
2019-03-20 14:00:00 17.8 14 Este 22 Este 0 946 -1.4 66
2019-03-20 13:00:00 17.5 12 Este 26 Este 0 946.8 -0.7 67
2019-03-20 12:00:00 17.7 11 Este 24 Este 0 947.3 0 62
2019-03-20 11:00:00 16.9 9 Sudeste 22 Este 0 947.4 0.3 62
2019-03-20 10:00:00 15.5 8 Oeste 21 Norte 0 947.5 0.9 67
2019-03-20 09:00:00 13.5 14 Noroeste 22 Noroeste 0 947.3 1.1 76
2019-03-20 08:00:00 11.5 15 Oeste 26 Oeste 0 947.1 0.9 85
2019-03-20 07:00:00 11 19 Noroeste 30 Noroeste 0 946.6 0.2 88
2019-03-20 06:00:00 11.4 21 Noroeste 32 Noroeste 0 946.2 -0.6 85
2019-03-20 05:00:00 11.4 18 Noroeste 28 Noroeste 0 946.2 -1.1 84
2019-03-20 04:00:00 11.7 15 Noroeste 28 Noroeste 0 946.4 -1.4 84
2019-03-20 03:00:00 11.3 19 Noroeste 30 Noroeste 0 946.8 -1.8 83
2019-03-20 02:00:00 11.4 20 Noroeste 32 Noroeste 0 947.3 -1.6 83
2019-03-20 01:00:00 11.9 19 Noroeste 30 Noroeste 0 947.8 -1.1 82
2019-03-20 00:00:00 11.2 14 Noroeste 28 Noroeste 0 948.6 0.1 83
2019-03-19 23:00:00 11.4 16 Noroeste 26 Noroeste 0 948.9 1 82
2019-03-19 22:00:00 12.1 18 Noroeste 33 Noroeste 0 948.9 1.2 82
2019-03-19 21:00:00 12.2 22 Noroeste 35 Noroeste 0 948.5 1 82
2019-03-19 20:00:00 12.3 24 Noroeste 39 Noroeste 0 947.9 0.6 81
2019-03-19 19:00:00 12.3 26 Noroeste 41 Noroeste 0 947.7 0.4 78
2019-03-19 18:00:00 13.5 28 Noroeste 39 Noroeste 0 947.5 -0.6 72
2019-03-19 17:00:00 15.3 26 Noroeste 35 Noroeste 0 947.3 -1.2 69
2019-03-19 16:00:00 15.7 26 Noroeste 39 Noroeste 0 947.3 -1.6 65
2019-03-19 15:00:00 15.6 20 Noroeste 33 Norte 0 948.1 -1.6 65
2019-03-19 14:00:00 16 19 Norte 30 Norte 0 948.5 -1.3 64
2019-03-19 13:00:00 16.2 12 Norte 28 Norte 0 948.9 -0.8 60
2019-03-19 12:00:00 16.1 17 Norte 32 Norte 0 949.7 0.4 61
2019-03-19 11:00:00 15 17 Norte 28 Norte 0 949.8 0.9 69
2019-03-19 10:00:00 14.4 14 Norte 28 Norte 0 949.7 0.8 69
2019-03-19 09:00:00 13.4 16 Noroeste 28 Norte 0 949.3 0.8 77
2019-03-19 08:00:00 11.9 17 Noroeste 28 Noroeste 0 948.9 0.2 76
2019-03-19 07:00:00 11.5 13 Noroeste 30 Noroeste 0 948.9 0.1 84
2019-03-19 06:00:00 12.1 15 Noroeste 26 Norte 0 948.5 -1 82
2019-03-19 05:00:00 12.3 11 Noroeste 21 Norte 0 948.7 -1.2 89
2019-03-19 04:00:00 12.2 9 Oeste 22 Norte 0 948.8 -1.5 90
2019-03-19 03:00:00 13 10 Norte 18 Noroeste 0 949.5 -0.9 83
2019-03-19 02:00:00 12.5 9 Norte 18 Norte 0 949.9 -0.6 77
2019-03-19 01:00:00 12.9 12 Norte 32 Norte 0 950.3 0 80
2019-03-19 00:00:00 13.2 12 Norte 22 Norte 0 950.4 0.5 79